Time;durP1;ratioP1;P1;durP2;ratioP2;P2;SDS_P1;SDS_P2;PMS_P1;PMS_P2;Temp;Humidity;BMP_temperature;BMP_pressure;BME280_temperature;BME280_humidity;BME280_pressure;Samples;Min_cycle;Max_cycle;Signal;HPM_P1;HPM_P2
2023/08/04 00:00:18;;;;;;;9.30;3.78;;;15.10;99.90;;;-144.05;90.13;56984.78;6129025;23;20020;-84
2023/08/04 00:02:45;;;;;;;7.20;3.20;;;15.10;99.90;;;-144.05;90.22;57016.63;6129649;23;20453;-85
2023/08/04 00:05:10;;;;;;;8.02;3.42;;;15.10;99.90;;;-144.05;89.71;56976.28;6155254;23;20001;-83
2023/08/04 00:07:37;;;;;;;11.93;3.47;;;15.10;99.90;;;-144.05;89.76;56991.13;6129160;23;20005;-83
2023/08/04 00:10:04;;;;;;;11.25;4.05;;;15.10;99.90;;;-144.05;89.59;57006.00;6135385;23;20009;-84
2023/08/04 00:12:31;;;;;;;7.53;3.38;;;15.10;99.90;;;-144.05;89.50;56993.25;6150945;23;20016;-85
2023/08/04 00:14:57;;;;;;;7.60;3.42;;;15.10;99.90;;;-144.05;89.60;56986.91;6160656;23;20009;-88
2023/08/04 00:17:25;;;;;;;8.05;3.70;;;15.10;99.90;;;-144.05;89.36;56991.13;6131467;23;20082;-85
2023/08/04 00:19:51;;;;;;;6.40;3.05;;;15.10;99.90;;;-144.05;89.46;57001.75;6130618;23;20402;-84
2023/08/04 00:22:16;;;;;;;9.57;3.20;;;15.10;99.90;;;-144.05;89.48;56999.63;6156430;23;20010;-88
2023/08/04 00:24:42;;;;;;;8.70;3.72;;;15.10;99.90;;;-144.05;89.48;57008.13;6156677;23;20016;-87
2023/08/04 00:27:08;;;;;;;9.20;3.75;;;15.10;99.90;;;-144.05;89.58;56967.78;6129610;23;20056;-86
2023/08/04 00:29:35;;;;;;;12.57;4.78;;;15.10;99.90;;;-144.05;89.74;57003.88;6155863;23;20450;-84
2023/08/04 00:32:01;;;;;;;15.35;4.78;;;15.10;99.90;;;-144.05;89.39;56989.00;6155997;23;20447;-85
2023/08/04 00:34:27;;;;;;;10.15;4.95;;;15.10;99.90;;;-144.05;89.38;56963.53;6129910;23;20037;-86
2023/08/04 00:36:53;;;;;;;11.43;4.50;;;15.10;99.90;;;-144.05;89.21;56989.00;6156162;23;20439;-86
2023/08/04 00:39:18;;;;;;;11.52;5.05;;;15.10;99.90;;;-144.05;89.34;56976.28;6155565;23;20010;-85
2023/08/04 00:41:44;;;;;;;10.63;5.03;;;15.10;99.90;;;-144.05;89.34;56999.63;6129291;23;20013;-87
2023/08/04 00:44:10;;;;;;;15.35;5.72;;;15.10;99.90;;;-144.05;89.45;56969.91;6129562;23;20009;-86
2023/08/04 00:46:38;;;;;;;14.15;5.20;;;15.10;99.90;;;-144.05;89.37;57008.13;6129185;23;20025;-86
2023/08/04 00:49:07;;;;;;;11.98;5.32;;;15.10;99.90;;;-144.05;89.85;57014.50;6129252;23;20005;-87
2023/08/04 00:51:37;;;;;;;18.65;5.75;;;15.10;99.90;;;-144.05;90.06;56986.91;6129713;23;20029;-87
2023/08/04 00:54:04;;;;;;;12.90;5.22;;;15.10;99.90;;;-144.05;90.01;56989.00;6130531;23;20014;-87
2023/08/04 00:56:36;;;;;;;15.05;6.28;;;15.10;99.90;;;-144.05;89.92;56972.03;6129347;23;20163;-87
2023/08/04 00:59:02;;;;;;;13.20;6.32;;;15.10;99.90;;;-144.05;90.40;56972.03;6129862;23;20044;-88
2023/08/04 01:01:28;;;;;;;11.90;5.72;;;15.10;99.90;;;-144.05;90.14;56993.25;6130309;23;20013;-85
2023/08/04 01:03:57;;;;;;;20.08;5.95;;;15.00;99.90;;;-144.05;90.22;56991.13;6129392;23;20016;-87
2023/08/04 01:06:37;;;;;;;13.07;6.40;;;15.10;99.90;;;-144.05;90.47;56984.78;6129925;23;20060;-87
2023/08/04 01:09:36;;;;;;;10.95;5.55;;;15.10;99.90;;;-144.05;91.30;56986.91;6130059;23;20502;-87
2023/08/04 01:12:13;;;;;;;12.45;6.30;;;15.10;99.90;;;-144.05;91.57;56997.50;6130628;23;20013;-89
2023/08/04 01:14:44;;;;;;;15.77;6.75;;;15.00;99.90;;;-144.05;91.23;56976.28;6129809;23;20390;-87
2023/08/04 01:17:31;;;;;;;12.25;6.25;;;15.00;99.90;;;-144.05;90.92;57008.13;6130015;23;20010;-84
2023/08/04 01:19:58;;;;;;;15.23;6.28;;;15.00;99.90;;;-144.05;90.92;56989.00;6129754;23;20036;-86
2023/08/04 01:22:26;;;;;;;14.90;7.25;;;15.00;99.90;;;-144.05;91.13;56974.16;6130093;23;20033;-87
2023/08/04 01:24:54;;;;;;;16.40;7.38;;;15.00;99.90;;;-144.05;91.00;56989.00;6156019;23;20057;-85
2023/08/04 01:27:56;;;;;;;11.73;6.07;;;15.00;99.90;;;-144.05;91.05;56989.00;6129534;23;20359;-89
2023/08/04 01:30:28;;;;;;;14.70;6.05;;;15.00;99.90;;;-144.05;91.04;56989.00;6130199;23;20013;-87
2023/08/04 01:32:54;;;;;;;11.30;5.70;;;15.00;99.90;;;-144.05;91.20;57006.00;6130169;23;20068;-83
2023/08/04 01:35:20;;;;;;;18.90;6.55;;;15.00;99.90;;;-144.05;91.27;56980.53;6130627;23;20057;-86
2023/08/04 01:37:46;;;;;;;12.23;6.65;;;15.00;99.90;;;-144.05;91.37;57016.63;6130959;23;20009;-88
2023/08/04 01:40:13;;;;;;;13.80;7.63;;;15.00;99.90;;;-144.05;91.51;56989.00;6130004;23;20192;-86
2023/08/04 01:42:40;;;;;;;12.88;7.25;;;15.00;99.90;;;-144.05;91.73;57010.25;6129717;23;20018;-87
2023/08/04 01:45:07;;;;;;;17.67;7.60;;;15.00;99.90;;;-144.05;91.55;56993.25;6129353;23;20020;-86
2023/08/04 01:47:33;;;;;;;13.68;6.78;;;14.90;99.90;;;-144.05;91.69;56991.13;6129223;23;20327;-88
2023/08/04 01:49:59;;;;;;;14.52;6.90;;;15.00;99.90;;;-144.05;91.37;56986.91;6129679;23;20006;-87
2023/08/04 01:52:25;;;;;;;11.63;5.95;;;14.90;99.90;;;-144.05;91.38;56986.91;6133675;23;20060;-89
2023/08/04 01:54:51;;;;;;;12.95;5.70;;;15.00;99.90;;;-144.05;91.55;57006.00;6159749;23;20009;-88
2023/08/04 01:57:17;;;;;;;16.48;7.80;;;15.00;99.90;;;-144.05;91.68;56991.13;6135086;23;20009;-89
2023/08/04 01:59:43;;;;;;;14.45;7.13;;;15.00;99.90;;;-144.05;91.62;57008.13;6131088;23;20010;-89
2023/08/04 02:02:08;;;;;;;10.85;5.78;;;15.00;99.90;;;-144.05;91.61;57016.63;6131205;23;20497;-90
2023/08/04 02:04:34;;;;;;;14.88;6.55;;;15.00;99.90;;;-144.05;91.50;56993.25;6130589;23;20016;-89
2023/08/04 02:07:00;;;;;;;15.52;6.93;;;15.00;99.90;;;-144.05;91.62;57001.75;6131041;23;20060;-89
2023/08/04 02:09:29;;;;;;;16.30;6.97;;;14.90;99.90;;;-144.05;91.85;56978.41;6137984;23;20006;-87
2023/08/04 02:11:55;;;;;;;16.27;6.93;;;15.00;99.90;;;-144.05;91.61;56999.63;6148396;23;20012;-87
2023/08/04 02:14:29;;;;;;;13.68;6.55;;;15.00;99.90;;;-144.05;91.71;56995.38;6152283;23;19997;-86
2023/08/04 02:16:56;;;;;;;12.73;6.32;;;15.00;99.90;;;-144.05;91.81;56989.00;6151308;23;20009;-87
2023/08/04 02:19:22;;;;;;;18.98;7.32;;;15.00;99.90;;;-144.05;91.82;56989.00;6176332;23;20017;-87
2023/08/04 02:21:49;;;;;;;16.25;7.35;;;14.90;99.90;;;-144.05;91.86;57010.25;6142802;23;20013;-86
2023/08/04 02:24:15;;;;;;;14.32;7.38;;;14.90;99.90;;;-144.05;91.80;56978.41;6136173;23;20013;-87
2023/08/04 02:26:44;;;;;;;16.80;7.53;;;14.90;99.90;;;-144.05;91.90;56991.13;6134181;23;20083;-89
2023/08/04 02:29:13;;;;;;;17.02;7.78;;;14.90;99.90;;;-144.05;92.28;57003.88;6133804;23;20011;-87
2023/08/04 02:31:40;;;;;;;13.27;7.97;;;14.90;99.90;;;-144.05;91.97;57006.00;6138519;23;20037;-86
2023/08/04 02:34:06;;;;;;;15.50;7.00;;;14.90;99.90;;;-144.05;92.08;56993.25;6168316;23;20005;-87
2023/08/04 02:36:32;;;;;;;13.38;7.68;;;15.00;99.90;;;-144.05;91.95;57003.88;6166410;23;20419;-86
2023/08/04 02:38:58;;;;;;;15.38;6.57;;;14.90;99.90;;;-144.05;92.06;56984.78;6161788;23;20080;-88
2023/08/04 02:41:24;;;;;;;12.50;7.35;;;14.90;99.90;;;-144.05;92.12;57003.88;6131116;23;20010;-87
2023/08/04 02:43:50;;;;;;;11.93;6.68;;;14.90;99.90;;;-144.05;92.09;56993.25;6156939;23;20052;-86
2023/08/04 02:46:15;;;;;;;16.92;7.32;;;14.90;99.90;;;-144.05;92.13;56993.25;6130911;23;20336;-87
2023/08/04 02:48:41;;;;;;;16.17;8.60;;;14.90;99.90;;;-144.05;91.94;57010.25;6158973;23;20009;-87
2023/08/04 02:51:12;;;;;;;15.70;7.70;;;14.90;99.90;;;-144.05;92.19;57008.13;6141752;23;20020;-85
2023/08/04 02:53:44;;;;;;;16.85;8.85;;;14.90;99.90;;;-144.05;92.37;57006.00;6163831;23;20439;-86
2023/08/04 02:56:16;;;;;;;16.17;7.57;;;14.90;99.90;;;-144.05;92.49;56997.50;6130470;23;20005;-87
2023/08/04 02:58:46;;;;;;;19.55;8.43;;;14.90;99.90;;;-144.05;92.51;56993.25;6130303;23;20100;-87
2023/08/04 03:01:14;;;;;;;18.73;8.90;;;14.90;99.90;;;-144.05;92.40;56974.16;6156084;23;20088;-86
2023/08/04 03:03:41;;;;;;;16.08;9.05;;;14.90;99.90;;;-144.05;92.45;56993.25;6129913;23;20096;-86
2023/08/04 03:06:07;;;;;;;17.80;9.13;;;14.90;99.90;;;-144.05;92.63;56972.03;6129746;23;20454;-87
2023/08/04 03:08:33;;;;;;;23.60;9.85;;;14.90;99.90;;;-144.05;92.54;57008.13;6156717;23;20009;-88
2023/08/04 03:10:59;;;;;;;18.23;9.90;;;14.90;99.90;;;-144.05;92.56;56989.00;6156368;23;20335;-87
2023/08/04 03:13:25;;;;;;;16.70;9.95;;;14.90;99.90;;;-144.05;92.56;56984.78;6130162;23;20387;-86
2023/08/04 03:16:01;;;;;;;12.80;6.70;;;14.80;99.90;;;-144.05;92.64;56999.63;6156582;23;20095;-87
2023/08/04 03:18:27;;;;;;;17.13;8.23;;;14.80;99.90;;;-144.05;92.47;56982.66;6187249;23;20346;-87
2023/08/04 03:20:54;;;;;;;20.08;9.38;;;14.90;99.90;;;-144.05;92.56;57001.75;6190312;23;20097;-90
2023/08/04 03:23:21;;;;;;;19.38;10.02;;;14.90;99.90;;;-144.05;92.56;57001.75;6190275;23;20005;-87
2023/08/04 03:25:48;;;;;;;20.35;9.90;;;14.90;99.90;;;-144.05;92.44;56995.38;6188903;23;20009;-89
2023/08/04 03:28:14;;;;;;;14.63;9.20;;;14.90;99.90;;;-144.05;92.38;56984.78;6188924;23;20036;-87
2023/08/04 03:30:40;;;;;;;19.23;10.43;;;14.80;99.90;;;-144.05;92.35;56986.91;6189064;23;20008;-87
2023/08/04 03:33:06;;;;;;;16.30;9.38;;;14.80;99.90;;;-144.05;92.33;57012.38;6189251;23;20068;-87
2023/08/04 03:35:33;;;;;;;17.23;9.35;;;14.80;99.90;;;-144.05;92.63;56989.00;6189221;23;20430;-87
2023/08/04 03:37:59;;;;;;;17.08;9.43;;;14.80;99.90;;;-144.05;92.62;56969.91;6190978;23;20009;-87
2023/08/04 03:40:25;;;;;;;21.00;9.80;;;14.80;99.90;;;-144.05;92.37;57001.75;6188497;23;20017;-88
2023/08/04 03:42:51;;;;;;;15.75;8.43;;;14.80;99.90;;;-144.05;92.22;57008.13;6190050;23;20009;-88
2023/08/04 03:45:17;;;;;;;18.70;9.95;;;14.80;99.90;;;-144.05;92.33;56982.66;6193918;23;20092;-88
2023/08/04 03:47:43;;;;;;;19.75;9.40;;;14.80;99.90;;;-144.05;92.30;56999.63;6192407;23;20005;-87
2023/08/04 03:50:09;;;;;;;20.23;10.40;;;14.80;99.90;;;-144.05;92.48;57008.13;6189195;23;20005;-87
2023/08/04 03:52:35;;;;;;;17.40;8.40;;;14.70;99.90;;;-144.05;92.49;56995.38;6188690;23;20009;-87
2023/08/04 03:55:01;;;;;;;20.02;9.52;;;14.70;99.90;;;-144.05;92.71;56984.78;6188700;23;20078;-89
2023/08/04 03:57:26;;;;;;;22.17;11.50;;;14.70;99.90;;;-144.05;92.70;56997.50;6185872;23;20072;-88
2023/08/04 03:59:53;;;;;;;20.70;10.43;;;14.60;99.90;;;-144.05;92.66;57014.50;6188504;23;20012;-88
2023/08/04 04:02:20;;;;;;;15.95;8.85;;;14.60;99.90;;;-144.05;92.38;56997.50;6188334;23;20013;-89
2023/08/04 04:04:46;;;;;;;21.80;9.52;;;14.70;99.90;;;-144.05;92.46;57006.00;6188899;23;20009;-88
2023/08/04 04:07:12;;;;;;;15.07;8.77;;;14.70;99.90;;;-144.05;92.72;57001.75;6193415;23;20005;-88
2023/08/04 04:09:38;;;;;;;14.77;8.90;;;14.70;99.90;;;-144.05;92.60;56984.78;6192242;23;20005;-88
2023/08/04 04:12:05;;;;;;;16.65;8.45;;;14.70;99.90;;;-144.05;92.56;56995.38;6192182;23;20012;-88
2023/08/04 04:14:30;;;;;;;17.30;9.27;;;14.70;99.90;;;-144.05;92.58;56999.63;6192218;23;20009;-87
2023/08/04 04:16:56;;;;;;;16.77;8.20;;;14.70;99.90;;;-144.05;92.59;56991.13;6190332;23;20013;-87
2023/08/04 04:19:22;;;;;;;24.80;10.15;;;14.70;99.90;;;-144.05;92.65;57023.00;6187291;23;20013;-88
2023/08/04 04:21:48;;;;;;;21.90;10.52;;;14.70;99.90;;;-144.05;92.47;56993.25;6186728;23;20599;-87
2023/08/04 04:24:14;;;;;;;19.90;8.85;;;14.70;99.90;;;-144.05;92.44;56999.63;6188059;23;20225;-87
2023/08/04 04:26:40;;;;;;;23.42;11.18;;;14.70;99.90;;;-144.05;92.79;56991.13;6185746;23;20004;-87
2023/08/04 04:29:05;;;;;;;16.65;9.48;;;14.80;99.90;;;-144.05;92.80;57008.13;6184591;23;20016;-84
2023/08/04 04:31:31;;;;;;;17.08;8.05;;;14.80;99.90;;;-144.05;92.47;57006.00;6185963;23;20047;-88
2023/08/04 04:33:57;;;;;;;17.83;9.80;;;14.80;99.90;;;-144.05;92.65;56989.00;6188354;23;20019;-88
2023/08/04 04:36:23;;;;;;;13.13;8.27;;;14.80;99.90;;;-144.05;92.75;56976.28;6186699;23;20448;-87
2023/08/04 04:38:49;;;;;;;13.80;7.78;;;14.80;99.90;;;-144.05;92.52;57001.75;6187024;23;20016;-87
2023/08/04 04:41:15;;;;;;;17.58;9.00;;;14.80;99.90;;;-144.05;92.59;57008.13;6186873;23;20423;-87
2023/08/04 04:43:40;;;;;;;18.02;8.48;;;14.80;99.90;;;-144.05;92.55;57003.88;6186889;23;20469;-87
2023/08/04 04:46:06;;;;;;;15.15;7.38;;;14.90;99.90;;;-144.05;92.60;57016.63;6186978;23;20009;-86
2023/08/04 04:48:32;;;;;;;24.45;11.30;;;14.90;99.90;;;-144.05;92.44;56995.38;6185937;23;20036;-87
2023/08/04 04:50:58;;;;;;;23.52;11.45;;;14.90;99.90;;;-144.05;92.66;57014.50;6210794;23;20394;-87
2023/08/04 04:53:24;;;;;;;21.50;10.65;;;14.90;99.90;;;-144.05;92.41;56984.78;6186784;23;20005;-87
2023/08/04 04:55:50;;;;;;;18.38;9.90;;;14.90;99.90;;;-144.05;92.47;56986.91;6185536;23;20016;-87
2023/08/04 04:58:15;;;;;;;14.82;9.50;;;14.90;99.90;;;-144.05;92.36;57018.75;6185832;23;20044;-87
2023/08/04 05:00:42;;;;;;;19.45;10.35;;;15.00;99.90;;;-144.05;92.04;56993.25;6185031;23;20443;-87
2023/08/04 05:03:10;;;;;;;18.00;9.55;;;15.00;99.90;;;-144.05;92.06;57008.13;6185944;23;20020;-88
2023/08/04 05:05:37;;;;;;;19.65;10.57;;;15.00;99.90;;;-144.05;92.00;56993.25;6198036;23;20012;-87
2023/08/04 05:08:04;;;;;;;20.48;9.77;;;15.00;99.90;;;-144.05;91.75;56999.63;6205915;23;20088;-88
2023/08/04 05:10:30;;;;;;;26.10;10.57;;;15.00;99.90;;;-144.05;91.71;57014.50;6193034;23;20009;-89
2023/08/04 05:12:56;;;;;;;23.15;11.18;;;15.00;99.90;;;-144.05;91.65;57006.00;6188993;23;20435;-87
2023/08/04 05:15:22;;;;;;;22.67;11.02;;;15.00;99.90;;;-144.05;91.59;56982.66;6188985;23;20012;-87
2023/08/04 05:17:48;;;;;;;28.88;12.52;;;15.00;99.90;;;-144.05;91.61;57001.75;6186222;23;20016;-87
2023/08/04 05:20:14;;;;;;;19.40;10.68;;;15.00;99.90;;;-144.05;91.67;56986.91;6185991;23;20020;-88
2023/08/04 05:22:41;;;;;;;16.80;8.70;;;15.10;99.90;;;-144.05;91.68;56984.78;6184986;23;20039;-87
2023/08/04 05:25:08;;;;;;;17.70;10.18;;;15.20;99.90;;;-144.05;91.71;56991.13;6206587;23;20048;-85
2023/08/04 05:27:34;;;;;;;20.38;11.13;;;15.10;99.90;;;-144.05;91.43;56995.38;6197146;23;20028;-88
2023/08/04 05:30:01;;;;;;;21.00;11.32;;;15.20;99.90;;;-144.05;91.26;56984.78;6187068;23;20009;-88
2023/08/04 05:32:27;;;;;;;23.55;11.13;;;15.20;99.90;;;-144.05;91.54;56972.03;6185148;23;20009;-88
2023/08/04 05:34:53;;;;;;;21.40;10.52;;;15.20;99.90;;;-144.05;90.98;56999.63;6184484;23;20036;-88
2023/08/04 05:37:19;;;;;;;23.52;11.02;;;15.30;99.90;;;-144.05;90.86;57003.88;6183976;23;20005;-87
2023/08/04 05:39:45;;;;;;;16.50;9.82;;;15.30;99.90;;;-144.05;90.59;56991.13;6183979;23;20005;-88
2023/08/04 05:42:11;;;;;;;25.77;10.68;;;15.30;99.90;;;-144.05;90.20;57025.13;6185247;23;20422;-87
2023/08/04 05:44:37;;;;;;;17.85;10.27;;;15.30;99.90;;;-144.05;90.39;57001.75;6186175;23;20028;-87
2023/08/04 05:47:03;;;;;;;22.27;12.70;;;15.40;99.90;;;-144.05;90.14;56995.38;6186081;23;20009;-87
2023/08/04 05:49:32;;;;;;;15.90;9.98;;;15.40;99.90;;;-144.05;90.16;57014.50;6210959;23;20001;-89
2023/08/04 05:51:59;;;;;;;20.15;11.10;;;15.40;99.90;;;-144.05;89.54;57003.88;6186961;23;20009;-86
2023/08/04 05:54:25;;;;;;;25.25;11.75;;;15.40;99.90;;;-144.05;89.72;57008.13;6190526;23;20013;-89
2023/08/04 05:56:51;;;;;;;23.67;11.90;;;15.40;99.90;;;-144.05;89.40;57010.25;6195223;23;20005;-88
2023/08/04 05:59:17;;;;;;;22.83;11.45;;;15.50;99.90;;;-144.05;89.15;57008.13;6192780;23;20005;-83
2023/08/04 06:01:44;;;;;;;26.17;12.20;;;15.50;99.90;;;-144.05;89.10;56986.91;6186423;23;20005;-83
2023/08/04 06:04:10;;;;;;;32.22;13.68;;;15.50;99.90;;;-144.05;88.91;57001.75;6186096;23;20009;-89
2023/08/04 06:06:36;;;;;;;21.67;11.63;;;15.60;99.90;;;-144.05;88.70;57010.25;6184947;23;20036;-87
2023/08/04 06:09:03;;;;;;;34.60;14.38;;;15.60;99.90;;;-144.05;88.45;56995.38;6184851;23;20005;-87
2023/08/04 06:11:29;;;;;;;18.85;11.45;;;15.60;99.90;;;-144.05;88.56;56999.63;6184959;23;20009;-86
2023/08/04 06:13:55;;;;;;;20.60;11.70;;;15.80;99.90;;;-144.05;88.36;56986.91;6184254;23;20035;-86
2023/08/04 06:16:21;;;;;;;23.98;13.93;;;15.80;99.90;;;-144.05;88.20;56993.25;6184181;23;20450;-85
2023/08/04 06:18:47;;;;;;;18.27;12.45;;;15.90;99.90;;;-144.05;88.06;57008.13;6184153;23;20056;-86
2023/08/04 06:21:13;;;;;;;16.55;12.75;;;16.00;99.90;;;-144.05;87.68;57006.00;6184215;23;20032;-85
2023/08/04 06:23:45;;;;;;;21.35;12.80;;;16.10;99.90;;;-144.05;87.39;56997.50;6184292;23;20080;-86
2023/08/04 06:26:12;;;;;;;27.92;14.80;;;16.20;99.90;;;-144.05;86.46;56997.50;6184813;23;20009;-87
2023/08/04 06:28:40;;;;;;;22.27;14.45;;;16.20;99.90;;;-144.05;85.82;56995.38;6184395;23;20016;-87
2023/08/04 06:31:07;;;;;;;22.83;15.15;;;16.40;99.90;;;-144.05;85.32;56980.53;6209436;23;20035;-86
2023/08/04 06:33:33;;;;;;;29.10;16.10;;;16.50;99.90;;;-144.05;83.96;56999.63;6184287;23;20024;-87
2023/08/04 06:35:58;;;;;;;28.55;15.25;;;16.50;99.90;;;-144.05;83.84;57006.00;6184158;23;20020;-86
2023/08/04 06:38:24;;;;;;;24.55;14.43;;;16.60;99.90;;;-144.05;82.96;56989.00;6184009;23;20032;-86
2023/08/04 06:40:50;;;;;;;24.17;14.02;;;16.70;99.90;;;-144.05;82.46;57008.13;6183917;23;20044;-86
2023/08/04 06:43:16;;;;;;;25.00;13.40;;;16.80;99.90;;;-144.05;80.53;57003.88;6183895;23;20001;-86
2023/08/04 06:45:42;;;;;;;18.40;12.70;;;16.90;99.90;;;-144.05;80.87;56995.38;6183616;23;20060;-85
2023/08/04 06:48:08;;;;;;;22.05;13.57;;;17.10;99.90;;;-144.05;78.97;57025.13;6183689;23;20504;-85
2023/08/04 06:50:34;;;;;;;22.42;13.10;;;17.40;99.90;;;-144.05;78.63;56993.25;6183596;23;20011;-86
2023/08/04 06:53:00;;;;;;;24.48;13.10;;;17.50;99.90;;;-144.05;77.43;57012.38;6183371;23;20017;-86
2023/08/04 06:55:25;;;;;;;19.35;11.50;;;17.50;99.90;;;-144.05;77.06;57031.50;6183392;23;20083;-86
2023/08/04 06:57:52;;;;;;;15.27;10.18;;;17.60;99.90;;;-144.05;77.01;56972.03;6183504;23;20031;-86
2023/08/04 07:00:18;;;;;;;19.80;10.55;;;17.60;99.90;;;-144.05;76.49;56976.28;6184906;23;20378;-86
2023/08/04 07:02:48;;;;;;;16.80;10.23;;;17.60;99.90;;;-144.05;76.97;57008.13;6183417;23;20012;-85
2023/08/04 07:05:15;;;;;;;20.48;10.32;;;17.50;99.90;;;-144.05;76.51;57006.00;6183198;23;20005;-83
2023/08/04 07:07:43;;;;;;;18.05;10.48;;;17.30;99.90;;;-144.05;76.86;57012.38;6183326;23;20009;-85
2023/08/04 07:10:10;;;;;;;18.58;9.35;;;17.30;99.90;;;-144.05;77.88;57008.13;6183133;23;20474;-84
2023/08/04 07:12:37;;;;;;;21.65;9.32;;;17.20;99.90;;;-144.05;78.43;57018.75;6183244;23;20450;-85
2023/08/04 07:15:04;;;;;;;18.25;8.57;;;17.20;99.90;;;-144.05;78.65;56991.13;6183000;23;20012;-85
2023/08/04 07:17:30;;;;;;;15.23;8.27;;;17.00;99.90;;;-144.05;78.89;57031.50;6158625;23;20001;-85
2023/08/04 07:19:56;;;;;;;15.30;7.97;;;17.00;99.90;;;-144.05;79.81;57003.88;6183260;23;20064;-85
2023/08/04 07:22:22;;;;;;;19.48;9.55;;;17.10;99.90;;;-144.05;78.63;57012.38;6183250;23;20400;-88
2023/08/04 07:24:53;;;;;;;15.90;7.78;;;17.40;99.90;;;-144.05;76.52;57012.38;6184765;23;20037;-84
2023/08/04 07:27:19;;;;;;;12.63;6.53;;;17.60;99.90;;;-144.05;76.38;57023.00;6184884;23;20001;-86
2023/08/04 07:29:45;;;;;;;15.88;8.18;;;17.70;99.90;;;-144.05;76.14;56993.25;6184812;23;20486;-85
2023/08/04 07:32:11;;;;;;;13.32;7.85;;;18.10;99.90;;;-144.05;73.29;57014.50;6183509;23;20040;-83
2023/08/04 07:34:37;;;;;;;14.25;7.53;;;18.40;99.90;;;-144.05;72.86;56997.50;6185017;23;20012;-83
2023/08/04 07:37:03;;;;;;;10.10;6.70;;;18.40;99.90;;;-144.05;70.94;57023.00;6183093;23;20009;-84
2023/08/04 07:39:29;;;;;;;12.32;6.10;;;18.30;99.90;;;-144.05;72.26;57001.75;6158096;23;20056;-84
2023/08/04 07:41:55;;;;;;;8.88;6.00;;;18.10;99.90;;;-144.05;73.05;57025.13;6184781;23;20093;-84
2023/08/04 07:44:21;;;;;;;10.93;5.97;;;18.00;99.90;;;-144.05;74.27;57031.50;6184545;23;20068;-83
2023/08/04 07:46:46;;;;;;;12.07;5.00;;;18.20;99.90;;;-144.05;71.45;57042.13;6184684;23;20044;-84
2023/08/04 07:49:12;;;;;;;9.95;3.90;;;18.80;99.90;;;-144.05;68.27;57031.50;6185589;23;20028;-85
2023/08/04 07:51:39;;;;;;;9.80;3.72;;;19.70;99.90;;;-144.05;62.73;57023.00;6184932;23;20013;-82
2023/08/04 07:54:05;;;;;;;5.63;3.08;;;20.30;99.90;;;-144.05;61.67;57023.00;6183176;23;20041;-84
2023/08/04 07:56:32;;;;;;;9.45;3.65;;;20.10;99.90;;;-144.05;62.80;57033.63;6182768;23;20035;-84
2023/08/04 07:58:58;;;;;;;11.02;3.63;;;19.90;99.90;;;-144.05;63.80;57059.09;6157949;23;20052;-81
2023/08/04 08:01:24;;;;;;;8.13;4.05;;;19.50;99.90;;;-144.05;66.12;57010.25;6184222;23;20327;-82
2023/08/04 08:03:50;;;;;;;11.60;4.15;;;19.20;99.90;;;-144.05;67.27;57014.50;6184480;23;20001;-80
2023/08/04 08:06:16;;;;;;;6.63;3.53;;;18.80;99.90;;;-144.05;68.30;57018.75;6182335;23;20036;-84
2023/08/04 08:08:46;;;;;;;10.88;3.90;;;18.60;99.90;;;-144.05;68.57;57025.13;6182614;23;20008;-83
2023/08/04 08:11:12;;;;;;;7.45;3.70;;;18.40;99.90;;;-144.05;69.04;57012.38;6184272;23;20034;-84
2023/08/04 08:13:38;;;;;;;10.52;3.83;;;18.40;99.90;;;-144.05;68.13;57031.50;6182695;23;20327;-83
2023/08/04 08:16:15;;;;;;;7.57;3.47;;;18.20;99.90;;;-144.05;69.48;57018.75;6184261;23;20009;-83
2023/08/04 08:18:41;;;;;;;12.43;3.78;;;18.30;99.90;;;-144.05;69.73;56997.50;6184194;23;20323;-81
2023/08/04 08:21:10;;;;;;;8.70;4.30;;;18.40;99.90;;;-144.05;68.92;57016.63;6158091;23;20342;-85
2023/08/04 08:23:36;;;;;;;12.27;5.10;;;18.50;99.90;;;-144.05;68.61;57020.88;6184172;23;20060;-82
2023/08/04 08:26:05;;;;;;;7.82;4.63;;;18.60;99.90;;;-144.05;68.95;57031.50;6157609;23;20045;-83
2023/08/04 08:28:32;;;;;;;10.50;4.75;;;18.70;99.90;;;-144.05;67.79;57016.63;6182511;23;20055;-81
2023/08/04 08:30:57;;;;;;;13.70;5.22;;;18.80;99.90;;;-144.05;67.93;57035.75;6158132;23;20021;-83
2023/08/04 08:33:23;;;;;;;11.80;5.05;;;18.90;99.90;;;-144.05;67.73;57031.50;6157547;23;20450;-83
2023/08/04 08:35:49;;;;;;;9.38;4.88;;;19.10;99.90;;;-144.05;65.11;57023.00;6184257;23;20009;-82
2023/08/04 08:38:15;;;;;;;8.98;4.20;;;19.10;99.90;;;-144.05;65.29;57025.13;6186298;23;20013;-82
2023/08/04 08:40:41;;;;;;;7.88;4.43;;;19.30;99.90;;;-144.05;64.31;57025.13;6192853;23;20033;-82
2023/08/04 08:43:07;;;;;;;15.55;5.35;;;19.50;99.90;;;-144.05;64.54;57018.75;6186167;23;20008;-86
2023/08/04 08:45:36;;;;;;;7.57;4.22;;;19.60;99.90;;;-144.05;64.94;57023.00;6185519;23;20012;-86
2023/08/04 08:48:04;;;;;;;11.75;4.85;;;19.80;99.90;;;-144.05;64.19;57001.75;6158973;23;20016;-87
2023/08/04 08:50:32;;;;;;;8.07;3.78;;;20.00;99.90;;;-144.05;63.25;57059.09;6159060;23;20033;-85
2023/08/04 08:53:23;;;;;;;5.18;3.00;;;20.40;99.90;;;-144.05;59.66;57054.88;6158791;23;20013;-87
2023/08/04 08:55:50;;;;;;;7.75;3.00;;;20.60;99.90;;;-144.05;57.73;57056.97;6158612;23;20088;-86
2023/08/04 08:58:18;;;;;;;5.15;2.70;;;20.90;99.90;;;-144.05;58.29;57063.34;6184637;23;20001;-86
2023/08/04 09:00:44;;;;;;;5.13;2.65;;;21.00;99.90;;;-144.05;58.97;57050.63;6184935;23;20016;-84
2023/08/04 09:03:10;;;;;;;6.20;3.17;;;21.00;99.90;;;-144.05;58.99;57052.75;6184905;23;20029;-83
2023/08/04 09:05:36;;;;;;;8.25;3.47;;;20.90;99.90;;;-144.05;59.55;57056.97;6158481;23;20009;-83
2023/08/04 09:08:05;;;;;;;8.25;3.17;;;20.80;99.90;;;-144.05;59.79;57033.63;6184574;23;20095;-83
2023/08/04 09:10:34;;;;;;;3.83;2.80;;;20.70;99.90;;;-144.05;58.85;57052.75;6158039;23;20005;-84
2023/08/04 09:13:01;;;;;;;6.57;2.80;;;20.60;99.90;;;-144.05;58.78;57059.09;6182775;23;20080;-85
2023/08/04 09:15:46;;;;;;;7.78;3.17;;;20.70;99.90;;;-144.05;58.77;57044.25;6170003;23;20505;-83
2023/08/04 09:18:31;;;;;;;8.20;2.75;;;20.70;99.90;;;-144.05;57.95;57044.25;6215093;23;20076;-85
2023/08/04 09:21:11;;;;;;;4.22;2.75;;;20.40;99.90;;;-144.05;58.20;57027.25;6216824;23;20083;-85
2023/08/04 09:23:52;;;;;;;5.82;2.58;;;20.40;99.90;;;-144.05;57.72;57046.38;6216020;23;20005;-85
2023/08/04 09:26:18;;;;;;;5.13;2.92;;;20.40;99.90;;;-144.05;58.12;57027.25;6215549;23;20004;-83
2023/08/04 09:28:46;;;;;;;3.97;2.53;;;20.50;99.90;;;-144.05;57.93;57059.09;6189064;23;20039;-84
2023/08/04 09:31:14;;;;;;;4.60;2.72;;;20.50;99.90;;;-144.05;58.50;57040.00;6214509;23;20008;-82
2023/08/04 09:33:43;;;;;;;5.28;2.97;;;20.40;99.90;;;-144.05;58.42;57031.50;6187457;23;20020;-82
2023/08/04 09:36:16;;;;;;;4.57;3.50;;;20.80;99.90;;;-144.05;57.39;57052.75;6187048;23;20020;-82
2023/08/04 09:38:43;;;;;;;6.05;4.10;;;21.70;99.90;;;-144.05;52.35;57071.84;6214281;23;20031;-82
2023/08/04 09:41:15;;;;;;;7.25;3.58;;;22.10;99.90;;;-144.05;53.36;57073.97;6187329;23;20103;-81
2023/08/04 09:43:47;;;;;;;6.97;3.25;;;21.90;99.90;;;-144.05;53.18;57065.47;6213761;23;20009;-80
2023/08/04 09:46:14;;;;;;;7.25;3.80;;;21.70;99.90;;;-144.05;54.53;57065.47;6213361;23;20395;-80
2023/08/04 09:48:40;;;;;;;7.35;3.22;;;21.50;99.90;;;-144.05;53.74;57071.84;6213556;23;20009;-84
2023/08/04 09:51:15;;;;;;;4.07;2.60;;;21.40;99.90;;;-144.05;54.95;57069.72;6213838;23;20109;-84
2023/08/04 09:53:46;;;;;;;4.60;2.50;;;21.40;99.90;;;-144.05;54.92;57061.22;6213869;23;20004;-80
2023/08/04 09:56:21;;;;;;;3.60;2.00;;;21.30;99.90;;;-144.05;53.38;57031.50;6186988;23;20411;-82
2023/08/04 09:58:49;;;;;;;4.90;2.70;;;21.20;99.90;;;-144.05;54.27;57025.13;6213382;23;20074;-80
2023/08/04 10:01:18;;;;;;;4.13;2.08;;;21.10;99.90;;;-144.05;54.92;57065.47;6186887;23;20275;-80